sensor_id;sensor_type;location;lat;lon;timestamp;P1;durP1;ratioP1;P2;durP2;ratioP2
37199;SDS011;23096;50.892;16.746;2023-07-16T00:00:06;4.90;;;2.50;;
37199;SDS011;23096;50.892;16.746;2023-07-16T00:02:33;10.40;;;2.90;;
37199;SDS011;23096;50.892;16.746;2023-07-16T00:04:59;5.80;;;2.80;;
37199;SDS011;23096;50.892;16.746;2023-07-16T00:07:25;6.90;;;3.00;;
37199;SDS011;23096;50.892;16.746;2023-07-16T00:09:51;4.60;;;2.50;;
37199;SDS011;23096;50.892;16.746;2023-07-16T00:12:17;4.90;;;2.80;;
37199;SDS011;23096;50.892;16.746;2023-07-16T00:14:42;5.90;;;3.00;;
37199;SDS011;23096;50.892;16.746;2023-07-16T00:17:08;4.50;;;2.30;;
37199;SDS011;23096;50.892;16.746;2023-07-16T00:19:33;4.80;;;2.80;;
37199;SDS011;23096;50.892;16.746;2023-07-16T00:21:59;5.00;;;2.20;;
37199;SDS011;23096;50.892;16.746;2023-07-16T00:24:25;5.50;;;2.50;;
37199;SDS011;23096;50.892;16.746;2023-07-16T00:26:50;3.70;;;2.80;;
37199;SDS011;23096;50.892;16.746;2023-07-16T00:29:17;6.30;;;2.60;;
37199;SDS011;23096;50.892;16.746;2023-07-16T00:31:44;11.00;;;3.10;;
37199;SDS011;23096;50.892;16.746;2023-07-16T00:34:10;2.70;;;2.50;;
37199;SDS011;23096;50.892;16.746;2023-07-16T00:36:37;6.70;;;3.20;;
37199;SDS011;23096;50.892;16.746;2023-07-16T00:39:03;6.80;;;3.00;;
37199;SDS011;23096;50.892;16.746;2023-07-16T00:41:28;3.20;;;2.60;;
37199;SDS011;23096;50.892;16.746;2023-07-16T00:43:54;3.50;;;2.70;;
37199;SDS011;23096;50.892;16.746;2023-07-16T00:46:20;5.80;;;2.50;;
37199;SDS011;23096;50.892;16.746;2023-07-16T00:48:46;8.30;;;3.00;;
37199;SDS011;23096;50.892;16.746;2023-07-16T00:51:11;6.00;;;2.40;;
37199;SDS011;23096;50.892;16.746;2023-07-16T00:53:40;7.10;;;2.80;;
37199;SDS011;23096;50.892;16.746;2023-07-16T00:56:07;9.20;;;3.20;;
37199;SDS011;23096;50.892;16.746;2023-07-16T00:58:33;7.60;;;3.20;;
37199;SDS011;23096;50.892;16.746;2023-07-16T01:00:59;8.90;;;3.10;;
37199;SDS011;23096;50.892;16.746;2023-07-16T01:03:24;3.80;;;2.80;;
37199;SDS011;23096;50.892;16.746;2023-07-16T01:05:54;4.50;;;2.90;;
37199;SDS011;23096;50.892;16.746;2023-07-16T01:08:27;4.60;;;3.30;;
37199;SDS011;23096;50.892;16.746;2023-07-16T01:11:14;3.60;;;2.80;;
37199;SDS011;23096;50.892;16.746;2023-07-16T01:13:40;5.40;;;3.20;;
37199;SDS011;23096;50.892;16.746;2023-07-16T01:16:17;4.40;;;3.30;;
37199;SDS011;23096;50.892;16.746;2023-07-16T01:18:44;3.30;;;2.60;;
37199;SDS011;23096;50.892;16.746;2023-07-16T01:21:10;10.10;;;3.30;;
37199;SDS011;23096;50.892;16.746;2023-07-16T01:23:39;5.70;;;3.10;;
37199;SDS011;23096;50.892;16.746;2023-07-16T01:31:58;3.50;;;2.70;;
37199;SDS011;23096;50.892;16.746;2023-07-16T01:34:28;5.00;;;2.80;;
37199;SDS011;23096;50.892;16.746;2023-07-16T01:36:56;6.70;;;3.40;;
37199;SDS011;23096;50.892;16.746;2023-07-16T01:39:21;6.00;;;3.20;;
37199;SDS011;23096;50.892;16.746;2023-07-16T01:41:47;5.10;;;3.80;;
37199;SDS011;23096;50.892;16.746;2023-07-16T01:44:13;6.10;;;3.20;;
37199;SDS011;23096;50.892;16.746;2023-07-16T01:46:38;5.20;;;3.20;;
37199;SDS011;23096;50.892;16.746;2023-07-16T01:49:04;3.50;;;3.20;;
37199;SDS011;23096;50.892;16.746;2023-07-16T01:51:29;3.90;;;3.20;;
37199;SDS011;23096;50.892;16.746;2023-07-16T01:53:55;4.30;;;3.30;;
37199;SDS011;23096;50.892;16.746;2023-07-16T01:56:20;6.30;;;3.30;;
37199;SDS011;23096;50.892;16.746;2023-07-16T01:58:47;5.90;;;3.00;;
37199;SDS011;23096;50.892;16.746;2023-07-16T02:01:12;5.10;;;3.10;;
37199;SDS011;23096;50.892;16.746;2023-07-16T02:03:38;6.70;;;3.60;;
37199;SDS011;23096;50.892;16.746;2023-07-16T02:06:04;8.70;;;4.40;;
37199;SDS011;23096;50.892;16.746;2023-07-16T02:08:31;10.90;;;3.30;;
37199;SDS011;23096;50.892;16.746;2023-07-16T02:10:57;3.60;;;3.10;;
37199;SDS011;23096;50.892;16.746;2023-07-16T02:13:23;5.30;;;3.50;;
37199;SDS011;23096;50.892;16.746;2023-07-16T02:15:52;4.50;;;3.60;;
37199;SDS011;23096;50.892;16.746;2023-07-16T02:18:18;6.10;;;3.40;;
37199;SDS011;23096;50.892;16.746;2023-07-16T02:20:44;6.50;;;3.40;;
37199;SDS011;23096;50.892;16.746;2023-07-16T02:23:10;4.60;;;3.40;;
37199;SDS011;23096;50.892;16.746;2023-07-16T02:25:36;6.60;;;2.90;;
37199;SDS011;23096;50.892;16.746;2023-07-16T02:28:02;5.20;;;3.60;;
37199;SDS011;23096;50.892;16.746;2023-07-16T02:30:29;3.90;;;3.20;;
37199;SDS011;23096;50.892;16.746;2023-07-16T02:32:55;7.60;;;4.20;;
37199;SDS011;23096;50.892;16.746;2023-07-16T02:35:21;3.70;;;3.40;;
37199;SDS011;23096;50.892;16.746;2023-07-16T02:37:47;6.20;;;3.30;;
37199;SDS011;23096;50.892;16.746;2023-07-16T02:40:13;5.20;;;3.30;;
37199;SDS011;23096;50.892;16.746;2023-07-16T02:42:41;5.60;;;3.40;;
37199;SDS011;23096;50.892;16.746;2023-07-16T02:45:07;5.10;;;3.20;;
37199;SDS011;23096;50.892;16.746;2023-07-16T02:47:34;4.50;;;2.70;;
37199;SDS011;23096;50.892;16.746;2023-07-16T02:50:00;3.80;;;3.10;;
37199;SDS011;23096;50.892;16.746;2023-07-16T02:52:25;4.10;;;3.20;;
37199;SDS011;23096;50.892;16.746;2023-07-16T02:54:51;3.60;;;3.20;;
37199;SDS011;23096;50.892;16.746;2023-07-16T02:57:16;3.50;;;3.20;;
37199;SDS011;23096;50.892;16.746;2023-07-16T02:59:42;5.10;;;2.90;;
37199;SDS011;23096;50.892;16.746;2023-07-16T03:02:08;4.60;;;3.00;;
37199;SDS011;23096;50.892;16.746;2023-07-16T03:04:33;5.70;;;3.30;;
37199;SDS011;23096;50.892;16.746;2023-07-16T03:06:59;5.90;;;3.20;;
37199;SDS011;23096;50.892;16.746;2023-07-16T03:09:24;7.90;;;3.60;;
37199;SDS011;23096;50.892;16.746;2023-07-16T03:11:50;5.10;;;3.40;;
37199;SDS011;23096;50.892;16.746;2023-07-16T03:14:17;6.50;;;3.90;;
37199;SDS011;23096;50.892;16.746;2023-07-16T03:16:42;5.40;;;3.80;;
37199;SDS011;23096;50.892;16.746;2023-07-16T03:19:08;7.40;;;3.90;;
37199;SDS011;23096;50.892;16.746;2023-07-16T03:21:34;5.70;;;3.10;;
37199;SDS011;23096;50.892;16.746;2023-07-16T03:24:00;7.00;;;3.80;;
37199;SDS011;23096;50.892;16.746;2023-07-16T03:26:25;9.20;;;3.90;;
37199;SDS011;23096;50.892;16.746;2023-07-16T03:28:51;3.80;;;3.20;;
37199;SDS011;23096;50.892;16.746;2023-07-16T03:31:16;6.10;;;3.90;;
37199;SDS011;23096;50.892;16.746;2023-07-16T03:33:42;8.90;;;3.80;;
37199;SDS011;23096;50.892;16.746;2023-07-16T03:36:08;4.10;;;3.50;;
37199;SDS011;23096;50.892;16.746;2023-07-16T03:38:33;5.30;;;3.60;;
37199;SDS011;23096;50.892;16.746;2023-07-16T03:40:59;6.10;;;3.80;;
37199;SDS011;23096;50.892;16.746;2023-07-16T03:43:26;5.40;;;3.60;;
37199;SDS011;23096;50.892;16.746;2023-07-16T03:45:55;6.70;;;3.40;;
37199;SDS011;23096;50.892;16.746;2023-07-16T03:48:21;5.50;;;3.70;;
37199;SDS011;23096;50.892;16.746;2023-07-16T03:50:46;9.40;;;4.00;;
37199;SDS011;23096;50.892;16.746;2023-07-16T03:53:13;4.70;;;3.30;;
37199;SDS011;23096;50.892;16.746;2023-07-16T03:55:38;4.00;;;3.50;;
37199;SDS011;23096;50.892;16.746;2023-07-16T03:58:05;6.30;;;3.70;;
37199;SDS011;23096;50.892;16.746;2023-07-16T04:00:30;8.50;;;3.80;;
37199;SDS011;23096;50.892;16.746;2023-07-16T04:02:57;5.80;;;3.30;;
37199;SDS011;23096;50.892;16.746;2023-07-16T04:05:22;7.00;;;3.60;;
37199;SDS011;23096;50.892;16.746;2023-07-16T04:07:49;8.50;;;4.80;;
37199;SDS011;23096;50.892;16.746;2023-07-16T04:10:14;8.20;;;4.50;;
37199;SDS011;23096;50.892;16.746;2023-07-16T04:12:40;9.00;;;3.40;;
37199;SDS011;23096;50.892;16.746;2023-07-16T04:15:07;5.50;;;3.20;;
37199;SDS011;23096;50.892;16.746;2023-07-16T04:17:35;5.80;;;3.50;;
37199;SDS011;23096;50.892;16.746;2023-07-16T04:20:01;6.20;;;3.10;;
37199;SDS011;23096;50.892;16.746;2023-07-16T04:22:26;6.80;;;3.00;;
37199;SDS011;23096;50.892;16.746;2023-07-16T04:24:52;5.40;;;2.80;;
37199;SDS011;23096;50.892;16.746;2023-07-16T04:27:17;4.40;;;2.50;;
37199;SDS011;23096;50.892;16.746;2023-07-16T04:29:43;2.90;;;2.70;;
37199;SDS011;23096;50.892;16.746;2023-07-16T04:32:09;6.50;;;2.90;;
37199;SDS011;23096;50.892;16.746;2023-07-16T04:34:34;6.50;;;2.60;;
37199;SDS011;23096;50.892;16.746;2023-07-16T04:37:00;6.60;;;2.90;;
37199;SDS011;23096;50.892;16.746;2023-07-16T04:39:25;5.70;;;3.00;;
37199;SDS011;23096;50.892;16.746;2023-07-16T04:41:51;3.60;;;2.80;;
37199;SDS011;23096;50.892;16.746;2023-07-16T04:44:16;4.60;;;2.80;;
37199;SDS011;23096;50.892;16.746;2023-07-16T04:46:42;3.00;;;2.70;;
37199;SDS011;23096;50.892;16.746;2023-07-16T04:49:08;6.10;;;2.60;;
37199;SDS011;23096;50.892;16.746;2023-07-16T04:51:33;10.60;;;4.00;;
37199;SDS011;23096;50.892;16.746;2023-07-16T04:53:59;2.60;;;2.40;;
37199;SDS011;23096;50.892;16.746;2023-07-16T04:56:24;4.70;;;2.00;;
37199;SDS011;23096;50.892;16.746;2023-07-16T04:58:50;4.60;;;2.80;;
37199;SDS011;23096;50.892;16.746;2023-07-16T05:01:15;3.50;;;2.20;;
37199;SDS011;23096;50.892;16.746;2023-07-16T05:03:41;3.90;;;2.60;;
37199;SDS011;23096;50.892;16.746;2023-07-16T05:06:07;6.70;;;3.00;;
37199;SDS011;23096;50.892;16.746;2023-07-16T05:08:32;6.70;;;2.40;;
37199;SDS011;23096;50.892;16.746;2023-07-16T05:10:58;5.90;;;2.40;;
37199;SDS011;23096;50.892;16.746;2023-07-16T05:13:24;4.10;;;2.30;;
37199;SDS011;23096;50.892;16.746;2023-07-16T05:15:50;6.00;;;2.30;;
37199;SDS011;23096;50.892;16.746;2023-07-16T05:18:16;3.70;;;2.20;;
37199;SDS011;23096;50.892;16.746;2023-07-16T05:20:42;3.70;;;2.30;;
37199;SDS011;23096;50.892;16.746;2023-07-16T05:23:09;2.40;;;2.20;;
37199;SDS011;23096;50.892;16.746;2023-07-16T05:25:35;7.60;;;2.30;;
37199;SDS011;23096;50.892;16.746;2023-07-16T05:28:00;5.70;;;2.20;;
37199;SDS011;23096;50.892;16.746;2023-07-16T05:30:26;2.20;;;2.00;;
37199;SDS011;23096;50.892;16.746;2023-07-16T05:32:51;3.70;;;2.10;;
37199;SDS011;23096;50.892;16.746;2023-07-16T05:35:17;4.20;;;2.00;;
37199;SDS011;23096;50.892;16.746;2023-07-16T05:37:42;5.00;;;2.30;;
37199;SDS011;23096;50.892;16.746;2023-07-16T05:40:08;5.30;;;2.30;;
37199;SDS011;23096;50.892;16.746;2023-07-16T05:42:34;2.20;;;1.90;;
37199;SDS011;23096;50.892;16.746;2023-07-16T05:45:00;4.20;;;2.00;;
37199;SDS011;23096;50.892;16.746;2023-07-16T05:47:25;4.10;;;2.30;;
37199;SDS011;23096;50.892;16.746;2023-07-16T05:49:51;3.60;;;1.60;;
37199;SDS011;23096;50.892;16.746;2023-07-16T05:52:17;2.70;;;1.60;;
37199;SDS011;23096;50.892;16.746;2023-07-16T05:54:45;3.20;;;1.90;;
37199;SDS011;23096;50.892;16.746;2023-07-16T05:57:11;3.30;;;1.80;;
37199;SDS011;23096;50.892;16.746;2023-07-16T05:59:36;2.60;;;1.90;;
37199;SDS011;23096;50.892;16.746;2023-07-16T06:02:05;6.50;;;1.40;;
37199;SDS011;23096;50.892;16.746;2023-07-16T06:04:31;2.90;;;1.40;;
37199;SDS011;23096;50.892;16.746;2023-07-16T06:06:57;1.70;;;1.40;;
37199;SDS011;23096;50.892;16.746;2023-07-16T06:09:22;4.10;;;2.10;;
37199;SDS011;23096;50.892;16.746;2023-07-16T06:11:48;1.50;;;1.40;;
37199;SDS011;23096;50.892;16.746;2023-07-16T06:14:14;5.00;;;1.50;;
37199;SDS011;23096;50.892;16.746;2023-07-16T06:16:40;2.40;;;1.40;;
37199;SDS011;23096;50.892;16.746;2023-07-16T06:19:05;2.00;;;1.80;;
37199;SDS011;23096;50.892;16.746;2023-07-16T06:21:32;3.20;;;1.20;;
37199;SDS011;23096;50.892;16.746;2023-07-16T06:23:58;3.80;;;1.50;;
37199;SDS011;23096;50.892;16.746;2023-07-16T06:26:24;2.40;;;1.40;;
37199;SDS011;23096;50.892;16.746;2023-07-16T06:28:49;5.60;;;1.80;;
37199;SDS011;23096;50.892;16.746;2023-07-16T06:31:16;2.20;;;1.60;;
37199;SDS011;23096;50.892;16.746;2023-07-16T06:33:42;1.80;;;1.10;;
37199;SDS011;23096;50.892;16.746;2023-07-16T06:36:07;3.60;;;1.10;;
37199;SDS011;23096;50.892;16.746;2023-07-16T06:38:33;1.70;;;1.30;;
37199;SDS011;23096;50.892;16.746;2023-07-16T06:40:58;1.40;;;1.20;;
37199;SDS011;23096;50.892;16.746;2023-07-16T06:43:24;4.10;;;1.80;;
37199;SDS011;23096;50.892;16.746;2023-07-16T06:45:50;2.80;;;1.50;;
37199;SDS011;23096;50.892;16.746;2023-07-16T06:48:16;6.10;;;1.00;;
37199;SDS011;23096;50.892;16.746;2023-07-16T06:50:42;1.80;;;1.10;;
37199;SDS011;23096;50.892;16.746;2023-07-16T06:53:08;1.20;;;1.00;;
37199;SDS011;23096;50.892;16.746;2023-07-16T06:55:35;1.30;;;1.20;;
37199;SDS011;23096;50.892;16.746;2023-07-16T06:58:00;1.60;;;1.50;;
37199;SDS011;23096;50.892;16.746;2023-07-16T07:00:26;2.60;;;1.40;;
37199;SDS011;23096;50.892;16.746;2023-07-16T07:02:52;2.30;;;1.40;;
37199;SDS011;23096;50.892;16.746;2023-07-16T07:05:17;1.60;;;1.20;;
37199;SDS011;23096;50.892;16.746;2023-07-16T07:07:43;1.80;;;0.90;;
37199;SDS011;23096;50.892;16.746;2023-07-16T07:10:11;4.00;;;1.50;;
37199;SDS011;23096;50.892;16.746;2023-07-16T07:12:38;1.60;;;1.40;;
37199;SDS011;23096;50.892;16.746;2023-07-16T07:15:09;3.70;;;1.80;;
37199;SDS011;23096;50.892;16.746;2023-07-16T07:17:36;3.10;;;1.50;;
37199;SDS011;23096;50.892;16.746;2023-07-16T07:20:02;3.40;;;1.90;;
37199;SDS011;23096;50.892;16.746;2023-07-16T07:22:29;3.20;;;1.70;;
37199;SDS011;23096;50.892;16.746;2023-07-16T07:24:54;3.10;;;1.40;;
37199;SDS011;23096;50.892;16.746;2023-07-16T07:27:20;1.70;;;1.30;;
37199;SDS011;23096;50.892;16.746;2023-07-16T07:29:45;4.60;;;1.70;;
37199;SDS011;23096;50.892;16.746;2023-07-16T07:32:11;2.40;;;1.30;;
37199;SDS011;23096;50.892;16.746;2023-07-16T07:34:38;1.40;;;1.10;;
37199;SDS011;23096;50.892;16.746;2023-07-16T07:37:04;4.70;;;1.30;;
37199;SDS011;23096;50.892;16.746;2023-07-16T07:39:30;1.00;;;0.90;;
37199;SDS011;23096;50.892;16.746;2023-07-16T07:41:57;3.00;;;1.20;;
37199;SDS011;23096;50.892;16.746;2023-07-16T07:44:22;1.40;;;1.30;;
37199;SDS011;23096;50.892;16.746;2023-07-16T07:46:48;2.50;;;1.40;;
37199;SDS011;23096;50.892;16.746;2023-07-16T07:49:13;2.10;;;1.10;;
37199;SDS011;23096;50.892;16.746;2023-07-16T07:51:39;1.60;;;1.50;;
37199;SDS011;23096;50.892;16.746;2023-07-16T07:54:05;2.30;;;1.40;;
37199;SDS011;23096;50.892;16.746;2023-07-16T07:56:30;2.20;;;1.30;;
37199;SDS011;23096;50.892;16.746;2023-07-16T07:58:56;1.70;;;1.20;;
37199;SDS011;23096;50.892;16.746;2023-07-16T08:01:21;2.80;;;1.50;;
37199;SDS011;23096;50.892;16.746;2023-07-16T08:03:47;1.80;;;1.40;;
37199;SDS011;23096;50.892;16.746;2023-07-16T08:06:12;3.40;;;1.20;;
37199;SDS011;23096;50.892;16.746;2023-07-16T08:08:38;1.20;;;1.00;;
37199;SDS011;23096;50.892;16.746;2023-07-16T08:11:03;1.70;;;1.20;;
37199;SDS011;23096;50.892;16.746;2023-07-16T08:13:29;3.70;;;1.20;;
37199;SDS011;23096;50.892;16.746;2023-07-16T08:15:55;2.70;;;1.20;;
37199;SDS011;23096;50.892;16.746;2023-07-16T08:18:20;3.60;;;1.50;;
37199;SDS011;23096;50.892;16.746;2023-07-16T08:20:46;2.90;;;1.30;;
37199;SDS011;23096;50.892;16.746;2023-07-16T08:23:12;1.20;;;1.10;;
37199;SDS011;23096;50.892;16.746;2023-07-16T08:25:38;1.70;;;1.30;;
37199;SDS011;23096;50.892;16.746;2023-07-16T08:28:03;2.00;;;1.80;;
37199;SDS011;23096;50.892;16.746;2023-07-16T08:30:29;1.60;;;1.50;;
37199;SDS011;23096;50.892;16.746;2023-07-16T08:32:54;1.60;;;1.40;;
37199;SDS011;23096;50.892;16.746;2023-07-16T08:35:20;3.20;;;1.60;;
37199;SDS011;23096;50.892;16.746;2023-07-16T08:37:46;3.10;;;2.30;;
37199;SDS011;23096;50.892;16.746;2023-07-16T08:40:11;2.00;;;1.70;;
37199;SDS011;23096;50.892;16.746;2023-07-16T08:42:40;2.00;;;1.50;;
37199;SDS011;23096;50.892;16.746;2023-07-16T08:45:10;2.70;;;1.80;;
37199;SDS011;23096;50.892;16.746;2023-07-16T08:47:36;2.10;;;1.30;;
37199;SDS011;23096;50.892;16.746;2023-07-16T08:50:02;2.00;;;1.70;;
37199;SDS011;23096;50.892;16.746;2023-07-16T08:52:28;2.30;;;1.90;;
37199;SDS011;23096;50.892;16.746;2023-07-16T08:54:54;3.90;;;2.00;;
37199;SDS011;23096;50.892;16.746;2023-07-16T08:57:20;2.80;;;1.70;;
37199;SDS011;23096;50.892;16.746;2023-07-16T08:59:50;1.60;;;1.30;;
37199;SDS011;23096;50.892;16.746;2023-07-16T09:02:19;2.50;;;2.00;;
37199;SDS011;23096;50.892;16.746;2023-07-16T09:04:49;2.50;;;2.00;;
37199;SDS011;23096;50.892;16.746;2023-07-16T09:07:18;2.20;;;2.00;;
37199;SDS011;23096;50.892;16.746;2023-07-16T09:09:54;3.80;;;2.40;;
37199;SDS011;23096;50.892;16.746;2023-07-16T09:12:20;2.40;;;2.20;;
37199;SDS011;23096;50.892;16.746;2023-07-16T09:14:49;5.80;;;2.40;;
37199;SDS011;23096;50.892;16.746;2023-07-16T09:17:19;6.10;;;2.40;;
37199;SDS011;23096;50.892;16.746;2023-07-16T09:19:46;3.40;;;2.10;;
37199;SDS011;23096;50.892;16.746;2023-07-16T09:22:17;3.50;;;2.30;;
37199;SDS011;23096;50.892;16.746;2023-07-16T09:24:44;3.20;;;2.30;;
37199;SDS011;23096;50.892;16.746;2023-07-16T09:27:11;3.00;;;1.90;;
37199;SDS011;23096;50.892;16.746;2023-07-16T09:29:38;2.00;;;1.90;;
37199;SDS011;23096;50.892;16.746;2023-07-16T09:32:04;2.60;;;2.30;;
37199;SDS011;23096;50.892;16.746;2023-07-16T09:34:32;3.90;;;2.70;;
37199;SDS011;23096;50.892;16.746;2023-07-16T09:36:59;2.70;;;2.40;;
37199;SDS011;23096;50.892;16.746;2023-07-16T09:39:26;3.20;;;2.70;;
37199;SDS011;23096;50.892;16.746;2023-07-16T09:41:52;3.90;;;2.00;;
37199;SDS011;23096;50.892;16.746;2023-07-16T09:44:19;4.90;;;2.60;;
37199;SDS011;23096;50.892;16.746;2023-07-16T09:46:45;3.20;;;2.00;;
37199;SDS011;23096;50.892;16.746;2023-07-16T09:49:11;2.60;;;1.90;;
37199;SDS011;23096;50.892;16.746;2023-07-16T09:51:39;4.20;;;2.40;;
37199;SDS011;23096;50.892;16.746;2023-07-16T09:54:05;2.30;;;2.10;;
37199;SDS011;23096;50.892;16.746;2023-07-16T09:56:39;1.80;;;1.70;;
37199;SDS011;23096;50.892;16.746;2023-07-16T09:59:09;2.70;;;2.20;;
37199;SDS011;23096;50.892;16.746;2023-07-16T10:01:38;2.50;;;1.90;;
37199;SDS011;23096;50.892;16.746;2023-07-16T10:04:15;3.20;;;2.30;;
37199;SDS011;23096;50.892;16.746;2023-07-16T10:06:51;3.40;;;2.70;;
37199;SDS011;23096;50.892;16.746;2023-07-16T10:12:12;3.10;;;2.10;;
37199;SDS011;23096;50.892;16.746;2023-07-16T10:14:43;3.80;;;2.40;;
37199;SDS011;23096;50.892;16.746;2023-07-16T10:17:17;4.60;;;2.40;;
37199;SDS011;23096;50.892;16.746;2023-07-16T10:22:13;3.10;;;2.60;;
37199;SDS011;23096;50.892;16.746;2023-07-16T10:24:39;4.50;;;2.70;;
37199;SDS011;23096;50.892;16.746;2023-07-16T10:27:04;2.60;;;2.40;;
37199;SDS011;23096;50.892;16.746;2023-07-16T10:29:30;2.60;;;2.40;;
37199;SDS011;23096;50.892;16.746;2023-07-16T10:31:56;3.20;;;2.40;;
37199;SDS011;23096;50.892;16.746;2023-07-16T10:41:16;2.60;;;2.40;;
37199;SDS011;23096;50.892;16.746;2023-07-16T10:43:42;3.50;;;2.40;;
37199;SDS011;23096;50.892;16.746;2023-07-16T10:46:09;3.90;;;2.70;;
37199;SDS011;23096;50.892;16.746;2023-07-16T10:48:34;2.70;;;2.50;;
37199;SDS011;23096;50.892;16.746;2023-07-16T10:51:00;2.80;;;2.10;;
37199;SDS011;23096;50.892;16.746;2023-07-16T10:53:25;4.50;;;1.90;;
37199;SDS011;23096;50.892;16.746;2023-07-16T10:55:51;3.00;;;2.10;;
37199;SDS011;23096;50.892;16.746;2023-07-16T10:58:16;1.80;;;1.50;;
37199;SDS011;23096;50.892;16.746;2023-07-16T11:00:42;1.90;;;1.60;;
37199;SDS011;23096;50.892;16.746;2023-07-16T11:03:09;2.60;;;2.00;;
37199;SDS011;23096;50.892;16.746;2023-07-16T11:05:35;1.80;;;1.70;;
37199;SDS011;23096;50.892;16.746;2023-07-16T11:08:02;2.10;;;1.50;;
37199;SDS011;23096;50.892;16.746;2023-07-16T11:10:29;1.90;;;1.60;;
37199;SDS011;23096;50.892;16.746;2023-07-16T11:12:55;4.80;;;2.00;;
37199;SDS011;23096;50.892;16.746;2023-07-16T11:15:42;2.50;;;1.20;;
37199;SDS011;23096;50.892;16.746;2023-07-16T11:18:08;2.40;;;1.40;;
37199;SDS011;23096;50.892;16.746;2023-07-16T11:20:33;1.70;;;1.00;;
37199;SDS011;23096;50.892;16.746;2023-07-16T11:22:59;1.80;;;1.40;;
37199;SDS011;23096;50.892;16.746;2023-07-16T11:25:25;1.60;;;1.50;;
37199;SDS011;23096;50.892;16.746;2023-07-16T11:27:53;1.30;;;1.20;;
37199;SDS011;23096;50.892;16.746;2023-07-16T11:30:22;1.60;;;1.50;;
37199;SDS011;23096;50.892;16.746;2023-07-16T11:32:49;2.60;;;1.60;;
37199;SDS011;23096;50.892;16.746;2023-07-16T11:35:15;1.60;;;1.50;;
37199;SDS011;23096;50.892;16.746;2023-07-16T11:37:43;3.70;;;1.20;;
37199;SDS011;23096;50.892;16.746;2023-07-16T11:40:10;1.60;;;1.20;;
37199;SDS011;23096;50.892;16.746;2023-07-16T11:42:39;1.50;;;1.40;;
37199;SDS011;23096;50.892;16.746;2023-07-16T11:45:14;3.50;;;1.30;;
37199;SDS011;23096;50.892;16.746;2023-07-16T11:47:41;7.00;;;1.30;;
37199;SDS011;23096;50.892;16.746;2023-07-16T11:50:07;1.60;;;1.50;;
37199;SDS011;23096;50.892;16.746;2023-07-16T11:52:33;2.60;;;1.20;;
37199;SDS011;23096;50.892;16.746;2023-07-16T11:54:58;2.80;;;1.30;;
37199;SDS011;23096;50.892;16.746;2023-07-16T11:59:56;1.40;;;1.30;;
37199;SDS011;23096;50.892;16.746;2023-07-16T12:02:22;2.20;;;1.70;;
37199;SDS011;23096;50.892;16.746;2023-07-16T12:04:48;2.80;;;1.40;;
37199;SDS011;23096;50.892;16.746;2023-07-16T12:07:14;1.90;;;1.40;;
37199;SDS011;23096;50.892;16.746;2023-07-16T12:09:39;19.10;;;2.20;;
37199;SDS011;23096;50.892;16.746;2023-07-16T12:12:05;1.50;;;1.40;;
37199;SDS011;23096;50.892;16.746;2023-07-16T12:14:32;1.70;;;1.10;;
37199;SDS011;23096;50.892;16.746;2023-07-16T12:16:58;3.00;;;1.40;;
37199;SDS011;23096;50.892;16.746;2023-07-16T12:19:24;2.00;;;1.50;;
37199;SDS011;23096;50.892;16.746;2023-07-16T12:21:50;3.30;;;1.10;;
37199;SDS011;23096;50.892;16.746;2023-07-16T12:24:16;1.50;;;1.40;;
37199;SDS011;23096;50.892;16.746;2023-07-16T12:26:42;1.70;;;1.50;;
37199;SDS011;23096;50.892;16.746;2023-07-16T12:29:07;1.50;;;1.40;;
37199;SDS011;23096;50.892;16.746;2023-07-16T12:31:33;1.40;;;1.10;;
37199;SDS011;23096;50.892;16.746;2023-07-16T12:34:00;1.30;;;1.20;;
37199;SDS011;23096;50.892;16.746;2023-07-16T12:36:29;1.30;;;1.20;;
37199;SDS011;23096;50.892;16.746;2023-07-16T12:38:55;3.30;;;1.20;;
37199;SDS011;23096;50.892;16.746;2023-07-16T12:41:20;1.30;;;1.20;;
37199;SDS011;23096;50.892;16.746;2023-07-16T12:43:46;1.60;;;1.50;;
37199;SDS011;23096;50.892;16.746;2023-07-16T12:46:12;3.40;;;1.50;;
37199;SDS011;23096;50.892;16.746;2023-07-16T12:48:37;1.60;;;1.20;;
37199;SDS011;23096;50.892;16.746;2023-07-16T12:51:03;2.10;;;1.20;;
37199;SDS011;23096;50.892;16.746;2023-07-16T12:53:29;2.00;;;1.50;;
37199;SDS011;23096;50.892;16.746;2023-07-16T12:55:54;2.50;;;1.60;;
37199;SDS011;23096;50.892;16.746;2023-07-16T12:58:20;2.20;;;1.40;;
37199;SDS011;23096;50.892;16.746;2023-07-16T13:00:46;3.00;;;1.40;;
37199;SDS011;23096;50.892;16.746;2023-07-16T13:03:12;2.40;;;1.70;;
37199;SDS011;23096;50.892;16.746;2023-07-16T13:05:41;1.70;;;1.60;;
37199;SDS011;23096;50.892;16.746;2023-07-16T13:08:08;2.40;;;1.80;;
37199;SDS011;23096;50.892;16.746;2023-07-16T13:10:34;1.70;;;1.50;;
37199;SDS011;23096;50.892;16.746;2023-07-16T13:13:00;1.70;;;1.50;;
37199;SDS011;23096;50.892;16.746;2023-07-16T13:15:26;2.10;;;1.30;;
37199;SDS011;23096;50.892;16.746;2023-07-16T13:17:51;3.90;;;1.40;;
37199;SDS011;23096;50.892;16.746;2023-07-16T13:20:17;1.70;;;1.60;;
37199;SDS011;23096;50.892;16.746;2023-07-16T13:22:44;2.20;;;1.50;;
37199;SDS011;23096;50.892;16.746;2023-07-16T13:25:09;5.00;;;1.80;;
37199;SDS011;23096;50.892;16.746;2023-07-16T13:27:35;1.40;;;1.30;;
37199;SDS011;23096;50.892;16.746;2023-07-16T13:30:00;1.90;;;1.30;;
37199;SDS011;23096;50.892;16.746;2023-07-16T13:32:26;1.60;;;1.40;;
37199;SDS011;23096;50.892;16.746;2023-07-16T13:34:52;1.30;;;1.20;;
37199;SDS011;23096;50.892;16.746;2023-07-16T13:37:19;1.80;;;1.30;;
37199;SDS011;23096;50.892;16.746;2023-07-16T13:39:45;2.70;;;1.90;;
37199;SDS011;23096;50.892;16.746;2023-07-16T13:42:11;2.10;;;1.60;;
37199;SDS011;23096;50.892;16.746;2023-07-16T13:44:39;2.00;;;1.60;;
37199;SDS011;23096;50.892;16.746;2023-07-16T13:47:05;1.70;;;1.60;;
37199;SDS011;23096;50.892;16.746;2023-07-16T13:49:31;1.40;;;1.20;;
37199;SDS011;23096;50.892;16.746;2023-07-16T13:51:56;1.50;;;1.40;;
37199;SDS011;23096;50.892;16.746;2023-07-16T13:54:22;2.10;;;1.70;;
37199;SDS011;23096;50.892;16.746;2023-07-16T13:56:50;1.70;;;1.40;;
37199;SDS011;23096;50.892;16.746;2023-07-16T13:59:16;4.30;;;1.80;;
37199;SDS011;23096;50.892;16.746;2023-07-16T14:01:41;2.20;;;1.70;;
37199;SDS011;23096;50.892;16.746;2023-07-16T14:04:07;3.50;;;2.00;;
37199;SDS011;23096;50.892;16.746;2023-07-16T14:06:33;1.90;;;1.30;;
37199;SDS011;23096;50.892;16.746;2023-07-16T14:08:59;2.10;;;1.80;;
37199;SDS011;23096;50.892;16.746;2023-07-16T14:11:25;2.30;;;2.10;;
37199;SDS011;23096;50.892;16.746;2023-07-16T14:13:51;1.40;;;1.30;;
37199;SDS011;23096;50.892;16.746;2023-07-16T14:16:18;2.00;;;1.60;;
37199;SDS011;23096;50.892;16.746;2023-07-16T14:18:44;1.70;;;1.40;;
37199;SDS011;23096;50.892;16.746;2023-07-16T14:21:09;1.50;;;1.30;;
37199;SDS011;23096;50.892;16.746;2023-07-16T14:23:35;1.50;;;1.40;;
37199;SDS011;23096;50.892;16.746;2023-07-16T14:26:01;4.30;;;1.30;;
37199;SDS011;23096;50.892;16.746;2023-07-16T14:28:28;3.60;;;2.00;;
37199;SDS011;23096;50.892;16.746;2023-07-16T14:30:54;4.90;;;1.90;;
37199;SDS011;23096;50.892;16.746;2023-07-16T14:33:20;1.40;;;1.30;;
37199;SDS011;23096;50.892;16.746;2023-07-16T14:35:46;1.60;;;1.50;;
37199;SDS011;23096;50.892;16.746;2023-07-16T14:38:11;2.00;;;1.60;;
37199;SDS011;23096;50.892;16.746;2023-07-16T14:40:37;1.40;;;1.30;;
37199;SDS011;23096;50.892;16.746;2023-07-16T14:43:04;2.00;;;1.60;;
37199;SDS011;23096;50.892;16.746;2023-07-16T14:45:31;1.60;;;1.50;;
37199;SDS011;23096;50.892;16.746;2023-07-16T14:47:58;2.70;;;1.60;;